sensor_id;sensor_type;location;lat;lon;timestamp;P1;durP1;ratioP1;P2;durP2;ratioP2
17790;SDS011;9019;48.132;-1.210;2024-03-29T00:01:55;2.93;;;0.90;;
17790;SDS011;9019;48.132;-1.210;2024-03-29T00:04:23;3.43;;;0.80;;
17790;SDS011;9019;48.132;-1.210;2024-03-29T00:06:49;2.53;;;0.73;;
17790;SDS011;9019;48.132;-1.210;2024-03-29T00:09:16;2.60;;;0.63;;
17790;SDS011;9019;48.132;-1.210;2024-03-29T00:11:42;1.27;;;0.77;;
17790;SDS011;9019;48.132;-1.210;2024-03-29T00:14:08;2.77;;;0.73;;
17790;SDS011;9019;48.132;-1.210;2024-03-29T00:16:34;2.40;;;0.70;;
17790;SDS011;9019;48.132;-1.210;2024-03-29T00:19:01;1.43;;;0.77;;
17790;SDS011;9019;48.132;-1.210;2024-03-29T00:21:28;1.80;;;0.70;;
17790;SDS011;9019;48.132;-1.210;2024-03-29T00:23:54;2.93;;;0.83;;
17790;SDS011;9019;48.132;-1.210;2024-03-29T00:26:21;3.10;;;0.90;;
17790;SDS011;9019;48.132;-1.210;2024-03-29T00:28:47;3.00;;;1.10;;
17790;SDS011;9019;48.132;-1.210;2024-03-29T00:31:13;3.00;;;1.00;;
17790;SDS011;9019;48.132;-1.210;2024-03-29T00:33:39;3.60;;;1.20;;
17790;SDS011;9019;48.132;-1.210;2024-03-29T00:36:06;3.03;;;1.10;;
17790;SDS011;9019;48.132;-1.210;2024-03-29T00:38:34;2.50;;;1.03;;
17790;SDS011;9019;48.132;-1.210;2024-03-29T00:41:00;2.47;;;1.10;;
17790;SDS011;9019;48.132;-1.210;2024-03-29T00:43:26;2.43;;;1.40;;
17790;SDS011;9019;48.132;-1.210;2024-03-29T00:45:52;5.27;;;1.60;;
17790;SDS011;9019;48.132;-1.210;2024-03-29T00:48:19;3.13;;;1.40;;
17790;SDS011;9019;48.132;-1.210;2024-03-29T00:50:45;2.67;;;1.40;;
17790;SDS011;9019;48.132;-1.210;2024-03-29T00:53:11;2.93;;;1.20;;
17790;SDS011;9019;48.132;-1.210;2024-03-29T00:55:39;2.47;;;1.10;;
17790;SDS011;9019;48.132;-1.210;2024-03-29T00:58:05;3.43;;;1.10;;
17790;SDS011;9019;48.132;-1.210;2024-03-29T01:00:32;4.60;;;1.13;;
17790;SDS011;9019;48.132;-1.210;2024-03-29T01:02:58;2.97;;;1.30;;
17790;SDS011;9019;48.132;-1.210;2024-03-29T01:05:25;2.43;;;1.30;;
17790;SDS011;9019;48.132;-1.210;2024-03-29T01:07:51;3.97;;;1.10;;
17790;SDS011;9019;48.132;-1.210;2024-03-29T01:10:17;3.57;;;1.23;;
17790;SDS011;9019;48.132;-1.210;2024-03-29T01:12:45;3.40;;;1.20;;
17790;SDS011;9019;48.132;-1.210;2024-03-29T01:15:11;2.97;;;1.20;;
17790;SDS011;9019;48.132;-1.210;2024-03-29T01:17:37;3.93;;;1.30;;
17790;SDS011;9019;48.132;-1.210;2024-03-29T01:20:04;2.63;;;1.27;;
17790;SDS011;9019;48.132;-1.210;2024-03-29T01:22:30;1.93;;;1.30;;
17790;SDS011;9019;48.132;-1.210;2024-03-29T01:24:57;2.40;;;1.13;;
17790;SDS011;9019;48.132;-1.210;2024-03-29T01:27:23;2.23;;;1.23;;
17790;SDS011;9019;48.132;-1.210;2024-03-29T01:29:51;3.20;;;1.30;;
17790;SDS011;9019;48.132;-1.210;2024-03-29T01:32:17;2.70;;;1.00;;
17790;SDS011;9019;48.132;-1.210;2024-03-29T01:34:43;4.07;;;1.00;;
17790;SDS011;9019;48.132;-1.210;2024-03-29T01:37:10;1.73;;;0.60;;
17790;SDS011;9019;48.132;-1.210;2024-03-29T01:39:36;3.30;;;0.90;;
17790;SDS011;9019;48.132;-1.210;2024-03-29T01:42:02;2.87;;;1.03;;
17790;SDS011;9019;48.132;-1.210;2024-03-29T01:44:28;2.80;;;0.80;;
17790;SDS011;9019;48.132;-1.210;2024-03-29T01:46:57;1.37;;;0.90;;
17790;SDS011;9019;48.132;-1.210;2024-03-29T01:49:24;2.33;;;0.90;;
17790;SDS011;9019;48.132;-1.210;2024-03-29T01:51:52;1.33;;;0.70;;
17790;SDS011;9019;48.132;-1.210;2024-03-29T01:54:19;0.50;;;0.37;;
17790;SDS011;9019;48.132;-1.210;2024-03-29T01:56:46;1.17;;;0.30;;
17790;SDS011;9019;48.132;-1.210;2024-03-29T01:59:14;1.13;;;0.40;;
17790;SDS011;9019;48.132;-1.210;2024-03-29T02:01:42;0.70;;;0.40;;
17790;SDS011;9019;48.132;-1.210;2024-03-29T02:04:11;1.03;;;0.30;;
17790;SDS011;9019;48.132;-1.210;2024-03-29T02:06:38;0.50;;;0.20;;
17790;SDS011;9019;48.132;-1.210;2024-03-29T02:09:05;1.50;;;0.30;;
17790;SDS011;9019;48.132;-1.210;2024-03-29T02:11:33;1.03;;;0.30;;
17790;SDS011;9019;48.132;-1.210;2024-03-29T02:14:00;0.57;;;0.23;;
17790;SDS011;9019;48.132;-1.210;2024-03-29T02:16:28;0.80;;;0.50;;
17790;SDS011;9019;48.132;-1.210;2024-03-29T02:18:54;1.40;;;0.37;;
17790;SDS011;9019;48.132;-1.210;2024-03-29T02:21:22;1.57;;;0.40;;
17790;SDS011;9019;48.132;-1.210;2024-03-29T02:23:57;0.90;;;0.30;;
17790;SDS011;9019;48.132;-1.210;2024-03-29T02:26:24;1.07;;;0.37;;
17790;SDS011;9019;48.132;-1.210;2024-03-29T02:28:56;0.83;;;0.30;;
17790;SDS011;9019;48.132;-1.210;2024-03-29T02:31:23;1.23;;;0.30;;
17790;SDS011;9019;48.132;-1.210;2024-03-29T02:33:51;0.87;;;0.20;;
17790;SDS011;9019;48.132;-1.210;2024-03-29T02:36:18;0.70;;;0.40;;
17790;SDS011;9019;48.132;-1.210;2024-03-29T02:38:45;0.60;;;0.20;;
17790;SDS011;9019;48.132;-1.210;2024-03-29T02:41:14;1.50;;;0.30;;
17790;SDS011;9019;48.132;-1.210;2024-03-29T02:43:41;1.00;;;0.43;;
17790;SDS011;9019;48.132;-1.210;2024-03-29T02:46:07;0.70;;;0.37;;
17790;SDS011;9019;48.132;-1.210;2024-03-29T02:48:35;0.40;;;0.20;;
17790;SDS011;9019;48.132;-1.210;2024-03-29T02:51:01;0.43;;;0.30;;
17790;SDS011;9019;48.132;-1.210;2024-03-29T02:53:28;0.50;;;0.23;;
17790;SDS011;9019;48.132;-1.210;2024-03-29T02:55:54;1.60;;;0.23;;
17790;SDS011;9019;48.132;-1.210;2024-03-29T02:58:23;0.53;;;0.30;;
17790;SDS011;9019;48.132;-1.210;2024-03-29T03:00:49;1.23;;;0.40;;
17790;SDS011;9019;48.132;-1.210;2024-03-29T03:03:17;0.83;;;0.40;;
17790;SDS011;9019;48.132;-1.210;2024-03-29T03:05:43;0.80;;;0.40;;
17790;SDS011;9019;48.132;-1.210;2024-03-29T03:08:11;1.30;;;0.30;;
17790;SDS011;9019;48.132;-1.210;2024-03-29T03:10:55;0.70;;;0.23;;
17790;SDS011;9019;48.132;-1.210;2024-03-29T03:13:25;1.10;;;0.30;;
17790;SDS011;9019;48.132;-1.210;2024-03-29T03:15:53;1.83;;;0.37;;
17790;SDS011;9019;48.132;-1.210;2024-03-29T03:18:19;1.73;;;0.20;;
17790;SDS011;9019;48.132;-1.210;2024-03-29T03:20:50;0.73;;;0.20;;
17790;SDS011;9019;48.132;-1.210;2024-03-29T03:23:16;2.23;;;0.37;;
17790;SDS011;9019;48.132;-1.210;2024-03-29T03:25:44;2.10;;;0.30;;
17790;SDS011;9019;48.132;-1.210;2024-03-29T03:28:10;1.97;;;0.50;;
17790;SDS011;9019;48.132;-1.210;2024-03-29T03:30:39;0.50;;;0.30;;
17790;SDS011;9019;48.132;-1.210;2024-03-29T03:33:06;1.37;;;0.20;;
17790;SDS011;9019;48.132;-1.210;2024-03-29T03:35:33;0.50;;;0.20;;
17790;SDS011;9019;48.132;-1.210;2024-03-29T03:37:59;0.67;;;0.37;;
17790;SDS011;9019;48.132;-1.210;2024-03-29T03:40:27;1.27;;;0.30;;
17790;SDS011;9019;48.132;-1.210;2024-03-29T03:42:53;1.33;;;0.30;;
17790;SDS011;9019;48.132;-1.210;2024-03-29T03:45:21;1.07;;;0.20;;
17790;SDS011;9019;48.132;-1.210;2024-03-29T03:47:49;0.33;;;0.20;;
17790;SDS011;9019;48.132;-1.210;2024-03-29T03:50:16;1.80;;;0.20;;
17790;SDS011;9019;48.132;-1.210;2024-03-29T03:52:42;0.83;;;0.30;;
17790;SDS011;9019;48.132;-1.210;2024-03-29T03:55:09;0.60;;;0.23;;
17790;SDS011;9019;48.132;-1.210;2024-03-29T03:57:35;1.17;;;0.40;;
17790;SDS011;9019;48.132;-1.210;2024-03-29T04:00:03;2.93;;;0.33;;
17790;SDS011;9019;48.132;-1.210;2024-03-29T04:02:29;1.47;;;0.37;;
17790;SDS011;9019;48.132;-1.210;2024-03-29T04:04:58;2.80;;;0.40;;
17790;SDS011;9019;48.132;-1.210;2024-03-29T04:07:25;1.27;;;0.30;;
17790;SDS011;9019;48.132;-1.210;2024-03-29T04:09:52;1.60;;;0.40;;
17790;SDS011;9019;48.132;-1.210;2024-03-29T04:12:18;3.47;;;0.40;;
17790;SDS011;9019;48.132;-1.210;2024-03-29T04:14:45;0.50;;;0.30;;
17790;SDS011;9019;48.132;-1.210;2024-03-29T04:17:11;1.63;;;0.57;;
17790;SDS011;9019;48.132;-1.210;2024-03-29T04:19:39;0.53;;;0.30;;
17790;SDS011;9019;48.132;-1.210;2024-03-29T04:22:06;2.73;;;0.50;;
17790;SDS011;9019;48.132;-1.210;2024-03-29T04:24:33;2.60;;;0.40;;
17790;SDS011;9019;48.132;-1.210;2024-03-29T04:27:00;2.30;;;0.50;;
17790;SDS011;9019;48.132;-1.210;2024-03-29T04:29:29;2.87;;;0.50;;
17790;SDS011;9019;48.132;-1.210;2024-03-29T04:31:55;1.60;;;0.50;;
17790;SDS011;9019;48.132;-1.210;2024-03-29T04:34:22;3.50;;;0.70;;
17790;SDS011;9019;48.132;-1.210;2024-03-29T04:36:49;2.43;;;0.50;;
17790;SDS011;9019;48.132;-1.210;2024-03-29T04:39:17;1.37;;;0.50;;
17790;SDS011;9019;48.132;-1.210;2024-03-29T04:41:44;3.43;;;0.67;;
17790;SDS011;9019;48.132;-1.210;2024-03-29T04:44:11;2.40;;;0.80;;
17790;SDS011;9019;48.132;-1.210;2024-03-29T04:46:39;2.50;;;0.50;;
17790;SDS011;9019;48.132;-1.210;2024-03-29T04:49:06;5.63;;;0.60;;
17790;SDS011;9019;48.132;-1.210;2024-03-29T04:51:33;4.43;;;0.87;;
17790;SDS011;9019;48.132;-1.210;2024-03-29T04:54:00;5.30;;;0.80;;
17790;SDS011;9019;48.132;-1.210;2024-03-29T04:56:29;2.90;;;0.70;;
17790;SDS011;9019;48.132;-1.210;2024-03-29T04:58:57;3.97;;;0.63;;
17790;SDS011;9019;48.132;-1.210;2024-03-29T05:01:24;2.67;;;0.70;;
17790;SDS011;9019;48.132;-1.210;2024-03-29T05:03:52;3.77;;;0.70;;
17790;SDS011;9019;48.132;-1.210;2024-03-29T05:06:19;4.27;;;0.60;;
17790;SDS011;9019;48.132;-1.210;2024-03-29T05:08:46;3.43;;;0.73;;
17790;SDS011;9019;48.132;-1.210;2024-03-29T05:11:13;2.20;;;0.63;;
17790;SDS011;9019;48.132;-1.210;2024-03-29T05:13:42;1.70;;;0.73;;
17790;SDS011;9019;48.132;-1.210;2024-03-29T05:16:09;4.20;;;1.00;;
17790;SDS011;9019;48.132;-1.210;2024-03-29T05:18:36;6.57;;;0.80;;
17790;SDS011;9019;48.132;-1.210;2024-03-29T05:21:04;2.40;;;0.80;;
17790;SDS011;9019;48.132;-1.210;2024-03-29T05:23:31;2.17;;;0.60;;
17790;SDS011;9019;48.132;-1.210;2024-03-29T05:26:01;2.93;;;0.70;;
17790;SDS011;9019;48.132;-1.210;2024-03-29T05:28:29;3.87;;;0.80;;
17790;SDS011;9019;48.132;-1.210;2024-03-29T05:30:57;2.43;;;0.90;;
17790;SDS011;9019;48.132;-1.210;2024-03-29T05:33:37;2.53;;;1.00;;
17790;SDS011;9019;48.132;-1.210;2024-03-29T05:36:04;6.43;;;1.00;;
17790;SDS011;9019;48.132;-1.210;2024-03-29T05:38:33;4.67;;;1.10;;
17790;SDS011;9019;48.132;-1.210;2024-03-29T05:41:00;5.13;;;1.00;;
17790;SDS011;9019;48.132;-1.210;2024-03-29T05:43:28;5.43;;;0.93;;
17790;SDS011;9019;48.132;-1.210;2024-03-29T05:45:55;3.90;;;0.90;;
17790;SDS011;9019;48.132;-1.210;2024-03-29T05:48:24;3.17;;;0.80;;
17790;SDS011;9019;48.132;-1.210;2024-03-29T05:50:51;5.63;;;1.10;;
17790;SDS011;9019;48.132;-1.210;2024-03-29T05:53:18;5.07;;;1.10;;
17790;SDS011;9019;48.132;-1.210;2024-03-29T05:55:45;6.57;;;1.13;;
17790;SDS011;9019;48.132;-1.210;2024-03-29T05:58:12;5.17;;;1.00;;
17790;SDS011;9019;48.132;-1.210;2024-03-29T06:00:42;3.30;;;0.80;;
17790;SDS011;9019;48.132;-1.210;2024-03-29T06:03:09;2.60;;;0.80;;
17790;SDS011;9019;48.132;-1.210;2024-03-29T06:05:39;5.67;;;1.10;;
17790;SDS011;9019;48.132;-1.210;2024-03-29T06:08:06;4.60;;;1.27;;
17790;SDS011;9019;48.132;-1.210;2024-03-29T06:10:34;4.37;;;1.50;;
17790;SDS011;9019;48.132;-1.210;2024-03-29T06:13:01;5.33;;;1.10;;
17790;SDS011;9019;48.132;-1.210;2024-03-29T06:15:33;4.53;;;1.30;;
17790;SDS011;9019;48.132;-1.210;2024-03-29T06:18:17;5.43;;;1.10;;
17790;SDS011;9019;48.132;-1.210;2024-03-29T06:20:46;5.30;;;1.27;;
17790;SDS011;9019;48.132;-1.210;2024-03-29T06:23:13;6.67;;;1.47;;
17790;SDS011;9019;48.132;-1.210;2024-03-29T06:25:41;2.93;;;1.40;;
17790;SDS011;9019;48.132;-1.210;2024-03-29T06:28:08;3.80;;;1.40;;
17790;SDS011;9019;48.132;-1.210;2024-03-29T06:30:35;4.70;;;1.40;;
17790;SDS011;9019;48.132;-1.210;2024-03-29T06:33:03;4.60;;;1.40;;
17790;SDS011;9019;48.132;-1.210;2024-03-29T06:35:30;7.43;;;2.00;;
17790;SDS011;9019;48.132;-1.210;2024-03-29T06:37:59;4.47;;;1.57;;
17790;SDS011;9019;48.132;-1.210;2024-03-29T06:40:26;5.00;;;1.87;;
17790;SDS011;9019;48.132;-1.210;2024-03-29T06:42:53;7.03;;;1.70;;
17790;SDS011;9019;48.132;-1.210;2024-03-29T06:45:23;5.07;;;1.73;;
17790;SDS011;9019;48.132;-1.210;2024-03-29T06:47:50;6.60;;;2.17;;
17790;SDS011;9019;48.132;-1.210;2024-03-29T06:50:18;9.10;;;1.83;;
17790;SDS011;9019;48.132;-1.210;2024-03-29T06:52:45;6.37;;;2.10;;
17790;SDS011;9019;48.132;-1.210;2024-03-29T06:55:13;7.90;;;1.90;;
17790;SDS011;9019;48.132;-1.210;2024-03-29T06:57:41;6.80;;;1.83;;
17790;SDS011;9019;48.132;-1.210;2024-03-29T07:00:10;5.60;;;1.70;;
17790;SDS011;9019;48.132;-1.210;2024-03-29T07:02:37;5.93;;;1.60;;
17790;SDS011;9019;48.132;-1.210;2024-03-29T07:05:04;8.50;;;1.60;;
17790;SDS011;9019;48.132;-1.210;2024-03-29T07:07:32;5.43;;;1.50;;
17790;SDS011;9019;48.132;-1.210;2024-03-29T07:10:00;4.47;;;1.53;;
17790;SDS011;9019;48.132;-1.210;2024-03-29T07:12:29;4.57;;;1.63;;
17790;SDS011;9019;48.132;-1.210;2024-03-29T07:14:56;4.27;;;1.27;;
17790;SDS011;9019;48.132;-1.210;2024-03-29T07:17:23;10.17;;;1.43;;
17790;SDS011;9019;48.132;-1.210;2024-03-29T07:19:50;6.00;;;1.50;;
17790;SDS011;9019;48.132;-1.210;2024-03-29T07:22:17;8.43;;;1.13;;
17790;SDS011;9019;48.132;-1.210;2024-03-29T07:24:45;5.40;;;1.10;;
17790;SDS011;9019;48.132;-1.210;2024-03-29T07:27:12;6.93;;;1.30;;
17790;SDS011;9019;48.132;-1.210;2024-03-29T07:29:43;4.53;;;1.47;;
17790;SDS011;9019;48.132;-1.210;2024-03-29T07:32:10;4.33;;;1.13;;
17790;SDS011;9019;48.132;-1.210;2024-03-29T07:34:38;6.10;;;1.20;;
17790;SDS011;9019;48.132;-1.210;2024-03-29T07:37:05;6.63;;;1.35;;
17790;SDS011;9019;48.132;-1.210;2024-03-29T07:39:37;3.53;;;1.05;;
17790;SDS011;9019;48.132;-1.210;2024-03-29T07:42:04;6.13;;;1.30;;
17790;SDS011;9019;48.132;-1.210;2024-03-29T07:44:31;8.27;;;1.60;;
17790;SDS011;9019;48.132;-1.210;2024-03-29T07:47:00;4.17;;;1.10;;
17790;SDS011;9019;48.132;-1.210;2024-03-29T07:49:27;4.13;;;1.00;;
17790;SDS011;9019;48.132;-1.210;2024-03-29T07:51:54;2.47;;;1.03;;
17790;SDS011;9019;48.132;-1.210;2024-03-29T07:54:22;2.33;;;0.70;;
17790;SDS011;9019;48.132;-1.210;2024-03-29T07:56:49;3.07;;;1.40;;
17790;SDS011;9019;48.132;-1.210;2024-03-29T07:59:16;3.17;;;1.20;;
17790;SDS011;9019;48.132;-1.210;2024-03-29T08:01:45;3.93;;;1.30;;
17790;SDS011;9019;48.132;-1.210;2024-03-29T08:04:13;2.00;;;0.70;;
17790;SDS011;9019;48.132;-1.210;2024-03-29T08:06:40;4.23;;;0.70;;
17790;SDS011;9019;48.132;-1.210;2024-03-29T08:09:08;4.07;;;1.13;;
17790;SDS011;9019;48.132;-1.210;2024-03-29T08:11:35;2.37;;;1.30;;
17790;SDS011;9019;48.132;-1.210;2024-03-29T08:14:02;3.47;;;1.43;;
17790;SDS011;9019;48.132;-1.210;2024-03-29T08:16:30;3.07;;;1.00;;
17790;SDS011;9019;48.132;-1.210;2024-03-29T08:18:57;4.00;;;1.70;;
17790;SDS011;9019;48.132;-1.210;2024-03-29T08:21:26;4.90;;;1.77;;
17790;SDS011;9019;48.132;-1.210;2024-03-29T08:23:54;3.83;;;0.80;;
17790;SDS011;9019;48.132;-1.210;2024-03-29T08:26:21;3.87;;;1.10;;
17790;SDS011;9019;48.132;-1.210;2024-03-29T08:28:49;4.40;;;1.83;;
17790;SDS011;9019;48.132;-1.210;2024-03-29T08:31:16;6.00;;;1.97;;
17790;SDS011;9019;48.132;-1.210;2024-03-29T08:33:44;4.50;;;1.20;;
17790;SDS011;9019;48.132;-1.210;2024-03-29T08:36:11;6.57;;;1.60;;
17790;SDS011;9019;48.132;-1.210;2024-03-29T08:38:40;5.93;;;1.60;;
17790;SDS011;9019;48.132;-1.210;2024-03-29T08:41:08;6.93;;;1.90;;
17790;SDS011;9019;48.132;-1.210;2024-03-29T08:43:35;5.53;;;1.50;;
17790;SDS011;9019;48.132;-1.210;2024-03-29T08:46:03;3.33;;;1.27;;
17790;SDS011;9019;48.132;-1.210;2024-03-29T08:48:30;5.50;;;1.47;;
17790;SDS011;9019;48.132;-1.210;2024-03-29T08:50:57;4.23;;;1.20;;
17790;SDS011;9019;48.132;-1.210;2024-03-29T08:53:24;7.60;;;1.70;;
17790;SDS011;9019;48.132;-1.210;2024-03-29T08:55:53;5.27;;;1.63;;
17790;SDS011;9019;48.132;-1.210;2024-03-29T08:58:21;4.17;;;1.60;;
17790;SDS011;9019;48.132;-1.210;2024-03-29T09:00:52;7.07;;;1.60;;
17790;SDS011;9019;48.132;-1.210;2024-03-29T09:03:20;6.77;;;1.53;;
17790;SDS011;9019;48.132;-1.210;2024-03-29T09:05:47;6.60;;;1.35;;
17790;SDS011;9019;48.132;-1.210;2024-03-29T09:08:14;6.40;;;1.50;;
17790;SDS011;9019;48.132;-1.210;2024-03-29T09:10:42;8.05;;;1.48;;
17790;SDS011;9019;48.132;-1.210;2024-03-29T09:13:10;6.18;;;1.50;;
17790;SDS011;9019;48.132;-1.210;2024-03-29T09:15:38;7.38;;;1.25;;
17790;SDS011;9019;48.132;-1.210;2024-03-29T09:18:05;6.30;;;1.40;;
17790;SDS011;9019;48.132;-1.210;2024-03-29T09:20:42;4.38;;;1.30;;
17790;SDS011;9019;48.132;-1.210;2024-03-29T09:23:09;5.93;;;1.42;;
17790;SDS011;9019;48.132;-1.210;2024-03-29T09:25:39;9.55;;;1.40;;
17790;SDS011;9019;48.132;-1.210;2024-03-29T09:28:06;6.53;;;1.40;;
17790;SDS011;9019;48.132;-1.210;2024-03-29T09:30:36;6.95;;;1.10;;
17790;SDS011;9019;48.132;-1.210;2024-03-29T09:33:03;5.05;;;1.20;;
17790;SDS011;9019;48.132;-1.210;2024-03-29T09:35:32;7.95;;;1.55;;
17790;SDS011;9019;48.132;-1.210;2024-03-29T09:37:59;7.03;;;1.48;;
17790;SDS011;9019;48.132;-1.210;2024-03-29T09:40:28;6.50;;;1.40;;
17790;SDS011;9019;48.132;-1.210;2024-03-29T09:42:57;4.22;;;1.17;;
17790;SDS011;9019;48.132;-1.210;2024-03-29T09:45:27;3.33;;;0.80;;
17790;SDS011;9019;48.132;-1.210;2024-03-29T09:47:59;3.50;;;0.93;;
17790;SDS011;9019;48.132;-1.210;2024-03-29T09:50:26;4.88;;;0.95;;
17790;SDS011;9019;48.132;-1.210;2024-03-29T09:52:54;4.75;;;1.38;;
17790;SDS011;9019;48.132;-1.210;2024-03-29T09:55:21;4.38;;;1.08;;
17790;SDS011;9019;48.132;-1.210;2024-03-29T09:57:49;4.15;;;1.13;;
17790;SDS011;9019;48.132;-1.210;2024-03-29T10:00:17;5.10;;;1.00;;
17790;SDS011;9019;48.132;-1.210;2024-03-29T10:02:44;7.35;;;1.20;;
17790;SDS011;9019;48.132;-1.210;2024-03-29T10:05:13;3.90;;;1.00;;
17790;SDS011;9019;48.132;-1.210;2024-03-29T10:07:41;4.70;;;1.00;;
17790;SDS011;9019;48.132;-1.210;2024-03-29T10:10:10;3.42;;;0.80;;
17790;SDS011;9019;48.132;-1.210;2024-03-29T10:12:37;5.68;;;1.17;;
17790;SDS011;9019;48.132;-1.210;2024-03-29T10:15:04;4.60;;;1.00;;
17790;SDS011;9019;48.132;-1.210;2024-03-29T10:17:35;2.78;;;0.80;;
17790;SDS011;9019;48.132;-1.210;2024-03-29T10:20:03;4.35;;;1.10;;
17790;SDS011;9019;48.132;-1.210;2024-03-29T10:22:40;5.50;;;1.02;;
17790;SDS011;9019;48.132;-1.210;2024-03-29T10:25:08;5.65;;;1.27;;
17790;SDS011;9019;48.132;-1.210;2024-03-29T10:27:35;5.10;;;1.10;;
17790;SDS011;9019;48.132;-1.210;2024-03-29T10:30:03;4.18;;;1.38;;
17790;SDS011;9019;48.132;-1.210;2024-03-29T10:32:30;6.07;;;1.33;;
17790;SDS011;9019;48.132;-1.210;2024-03-29T10:34:58;5.05;;;0.90;;
17790;SDS011;9019;48.132;-1.210;2024-03-29T10:37:27;8.05;;;1.27;;
17790;SDS011;9019;48.132;-1.210;2024-03-29T10:39:59;5.88;;;1.10;;
17790;SDS011;9019;48.132;-1.210;2024-03-29T10:42:28;5.45;;;1.20;;
17790;SDS011;9019;48.132;-1.210;2024-03-29T10:44:58;5.07;;;1.27;;
17790;SDS011;9019;48.132;-1.210;2024-03-29T10:47:26;5.60;;;1.42;;
17790;SDS011;9019;48.132;-1.210;2024-03-29T10:49:55;4.65;;;1.17;;
17790;SDS011;9019;48.132;-1.210;2024-03-29T10:52:23;5.95;;;1.40;;
17790;SDS011;9019;48.132;-1.210;2024-03-29T10:54:52;6.22;;;1.45;;
17790;SDS011;9019;48.132;-1.210;2024-03-29T10:57:22;6.13;;;1.42;;
17790;SDS011;9019;48.132;-1.210;2024-03-29T10:59:52;7.05;;;1.27;;
17790;SDS011;9019;48.132;-1.210;2024-03-29T11:02:24;4.32;;;0.90;;
17790;SDS011;9019;48.132;-1.210;2024-03-29T11:04:55;2.95;;;0.70;;
17790;SDS011;9019;48.132;-1.210;2024-03-29T11:07:24;4.80;;;0.77;;
17790;SDS011;9019;48.132;-1.210;2024-03-29T11:09:52;5.80;;;1.10;;
17790;SDS011;9019;48.132;-1.210;2024-03-29T11:12:22;2.75;;;0.80;;
17790;SDS011;9019;48.132;-1.210;2024-03-29T11:14:51;3.15;;;1.13;;
17790;SDS011;9019;48.132;-1.210;2024-03-29T11:17:21;2.55;;;1.02;;
17790;SDS011;9019;48.132;-1.210;2024-03-29T11:19:49;3.85;;;0.80;;
17790;SDS011;9019;48.132;-1.210;2024-03-29T11:22:16;3.10;;;0.70;;
17790;SDS011;9019;48.132;-1.210;2024-03-29T11:24:43;4.57;;;1.00;;
17790;SDS011;9019;48.132;-1.210;2024-03-29T11:27:11;3.35;;;0.65;;
17790;SDS011;9019;48.132;-1.210;2024-03-29T11:29:42;4.32;;;0.98;;
17790;SDS011;9019;48.132;-1.210;2024-03-29T11:32:11;3.05;;;1.10;;
17790;SDS011;9019;48.132;-1.210;2024-03-29T11:34:43;4.90;;;0.63;;
17790;SDS011;9019;48.132;-1.210;2024-03-29T11:37:11;5.45;;;0.82;;
17790;SDS011;9019;48.132;-1.210;2024-03-29T11:39:38;4.68;;;0.90;;
17790;SDS011;9019;48.132;-1.210;2024-03-29T11:42:06;4.78;;;0.77;;
17790;SDS011;9019;48.132;-1.210;2024-03-29T11:44:34;4.15;;;0.98;;
17790;SDS011;9019;48.132;-1.210;2024-03-29T11:47:02;4.60;;;1.10;;
17790;SDS011;9019;48.132;-1.210;2024-03-29T11:49:31;4.82;;;1.02;;
17790;SDS011;9019;48.132;-1.210;2024-03-29T11:52:03;7.10;;;1.40;;
17790;SDS011;9019;48.132;-1.210;2024-03-29T11:54:36;4.80;;;1.17;;
17790;SDS011;9019;48.132;-1.210;2024-03-29T11:57:04;7.13;;;1.20;;
17790;SDS011;9019;48.132;-1.210;2024-03-29T11:59:31;4.22;;;0.88;;
17790;SDS011;9019;48.132;-1.210;2024-03-29T12:01:58;3.75;;;0.82;;
17790;SDS011;9019;48.132;-1.210;2024-03-29T12:04:27;6.93;;;1.08;;
17790;SDS011;9019;48.132;-1.210;2024-03-29T12:06:54;5.53;;;1.08;;
17790;SDS011;9019;48.132;-1.210;2024-03-29T12:09:22;3.65;;;1.00;;
17790;SDS011;9019;48.132;-1.210;2024-03-29T12:11:49;5.88;;;1.48;;
17790;SDS011;9019;48.132;-1.210;2024-03-29T12:14:16;6.65;;;1.10;;
17790;SDS011;9019;48.132;-1.210;2024-03-29T12:16:43;7.00;;;1.35;;
17790;SDS011;9019;48.132;-1.210;2024-03-29T12:19:21;4.65;;;1.05;;
17790;SDS011;9019;48.132;-1.210;2024-03-29T12:21:50;5.35;;;1.27;;
17790;SDS011;9019;48.132;-1.210;2024-03-29T12:24:17;8.45;;;1.30;;
17790;SDS011;9019;48.132;-1.210;2024-03-29T12:26:45;7.90;;;1.15;;
17790;SDS011;9019;48.132;-1.210;2024-03-29T12:29:12;5.35;;;1.35;;
17790;SDS011;9019;48.132;-1.210;2024-03-29T12:31:40;5.07;;;1.10;;
17790;SDS011;9019;48.132;-1.210;2024-03-29T12:34:07;4.57;;;1.23;;
17790;SDS011;9019;48.132;-1.210;2024-03-29T12:36:34;7.65;;;1.33;;
17790;SDS011;9019;48.132;-1.210;2024-03-29T12:39:03;8.75;;;1.35;;
17790;SDS011;9019;48.132;-1.210;2024-03-29T12:41:31;6.22;;;1.23;;
17790;SDS011;9019;48.132;-1.210;2024-03-29T12:44:00;5.57;;;1.13;;
17790;SDS011;9019;48.132;-1.210;2024-03-29T12:46:27;4.22;;;1.00;;
17790;SDS011;9019;48.132;-1.210;2024-03-29T12:48:58;5.13;;;1.50;;
17790;SDS011;9019;48.132;-1.210;2024-03-29T12:51:26;4.28;;;1.10;;
17790;SDS011;9019;48.132;-1.210;2024-03-29T12:53:54;4.75;;;1.00;;
17790;SDS011;9019;48.132;-1.210;2024-03-29T12:56:26;5.45;;;1.20;;
17790;SDS011;9019;48.132;-1.210;2024-03-29T12:58:54;6.43;;;1.13;;
17790;SDS011;9019;48.132;-1.210;2024-03-29T13:01:21;6.15;;;1.30;;
17790;SDS011;9019;48.132;-1.210;2024-03-29T13:03:47;4.93;;;1.10;;
17790;SDS011;9019;48.132;-1.210;2024-03-29T13:06:14;4.13;;;1.23;;
17790;SDS011;9019;48.132;-1.210;2024-03-29T13:08:43;6.38;;;1.02;;
17790;SDS011;9019;48.132;-1.210;2024-03-29T13:11:10;3.83;;;0.88;;
17790;SDS011;9019;48.132;-1.210;2024-03-29T13:13:39;6.70;;;1.52;;
17790;SDS011;9019;48.132;-1.210;2024-03-29T13:16:06;4.00;;;1.00;;
17790;SDS011;9019;48.132;-1.210;2024-03-29T13:18:33;4.72;;;1.08;;
17790;SDS011;9019;48.132;-1.210;2024-03-29T13:21:00;7.28;;;1.25;;
17790;SDS011;9019;48.132;-1.210;2024-03-29T13:23:27;3.85;;;1.23;;
17790;SDS011;9019;48.132;-1.210;2024-03-29T13:25:57;4.63;;;1.00;;
17790;SDS011;9019;48.132;-1.210;2024-03-29T13:28:25;4.07;;;1.08;;
17790;SDS011;9019;48.132;-1.210;2024-03-29T13:30:53;4.90;;;1.27;;
17790;SDS011;9019;48.132;-1.210;2024-03-29T13:33:22;5.70;;;0.90;;
17790;SDS011;9019;48.132;-1.210;2024-03-29T13:35:52;7.68;;;1.05;;
17790;SDS011;9019;48.132;-1.210;2024-03-29T13:38:22;7.78;;;1.60;;
17790;SDS011;9019;48.132;-1.210;2024-03-29T13:40:51;7.55;;;1.50;;
17790;SDS011;9019;48.132;-1.210;2024-03-29T13:43:19;6.10;;;1.20;;
17790;SDS011;9019;48.132;-1.210;2024-03-29T13:45:47;6.93;;;1.50;;
17790;SDS011;9019;48.132;-1.210;2024-03-29T13:48:17;6.00;;;1.38;;
17790;SDS011;9019;48.132;-1.210;2024-03-29T13:50:44;4.80;;;0.95;;
17790;SDS011;9019;48.132;-1.210;2024-03-29T13:53:12;4.72;;;1.10;;
17790;SDS011;9019;48.132;-1.210;2024-03-29T13:55:40;7.32;;;1.17;;
17790;SDS011;9019;48.132;-1.210;2024-03-29T13:58:07;8.57;;;1.30;;
17790;SDS011;9019;48.132;-1.210;2024-03-29T14:00:34;5.03;;;1.00;;
17790;SDS011;9019;48.132;-1.210;2024-03-29T14:03:02;5.07;;;1.17;;
17790;SDS011;9019;48.132;-1.210;2024-03-29T14:05:30;7.43;;;1.52;;
17790;SDS011;9019;48.132;-1.210;2024-03-29T14:07:58;5.70;;;1.10;;
17790;SDS011;9019;48.132;-1.210;2024-03-29T14:10:26;6.57;;;1.23;;
17790;SDS011;9019;48.132;-1.210;2024-03-29T14:12:53;5.72;;;1.33;;
17790;SDS011;9019;48.132;-1.210;2024-03-29T14:15:22;6.00;;;1.52;;
17790;SDS011;9019;48.132;-1.210;2024-03-29T14:17:49;6.57;;;1.33;;
17790;SDS011;9019;48.132;-1.210;2024-03-29T14:20:17;3.78;;;1.25;;
17790;SDS011;9019;48.132;-1.210;2024-03-29T14:22:45;5.85;;;1.42;;
17790;SDS011;9019;48.132;-1.210;2024-03-29T14:25:17;4.25;;;1.30;;
17790;SDS011;9019;48.132;-1.210;2024-03-29T14:27:44;6.22;;;1.17;;
17790;SDS011;9019;48.132;-1.210;2024-03-29T14:30:19;4.60;;;0.90;;
17790;SDS011;9019;48.132;-1.210;2024-03-29T14:32:47;4.95;;;1.02;;
17790;SDS011;9019;48.132;-1.210;2024-03-29T14:35:14;3.50;;;0.95;;
17790;SDS011;9019;48.132;-1.210;2024-03-29T14:37:42;5.40;;;1.13;;
17790;SDS011;9019;48.132;-1.210;2024-03-29T14:40:11;4.28;;;0.90;;
17790;SDS011;9019;48.132;-1.210;2024-03-29T14:42:40;5.18;;;1.30;;
17790;SDS011;9019;48.132;-1.210;2024-03-29T14:45:07;3.63;;;1.20;;
17790;SDS011;9019;48.132;-1.210;2024-03-29T14:47:36;4.40;;;1.15;;
17790;SDS011;9019;48.132;-1.210;2024-03-29T14:50:04;4.53;;;0.82;;
17790;SDS011;9019;48.132;-1.210;2024-03-29T14:52:33;7.32;;;1.23;;